createdAt,value
2023-03-03T00:04:17.168Z,99315.30
2023-03-03T00:09:20.443Z,99307.66
2023-03-03T00:14:32.239Z,99303.21
2023-03-03T00:19:40.128Z,99304.25
2023-03-03T00:24:43.871Z,99300.09
2023-03-03T00:29:51.269Z,99295.27
2023-03-03T00:35:06.287Z,99291.55
2023-03-03T00:40:28.114Z,99289.88
2023-03-03T00:45:39.110Z,99281.43
2023-03-03T00:50:43.962Z,99278.10
2023-03-03T00:55:49.115Z,99280.61
2023-03-03T01:00:54.973Z,99273.55
2023-03-03T01:06:01.814Z,99273.53
2023-03-03T01:11:10.858Z,99272.41
2023-03-03T01:16:14.934Z,99272.40
2023-03-03T01:21:18.501Z,99268.73
2023-03-03T01:26:21.994Z,99262.23
2023-03-03T01:31:25.484Z,99262.45
2023-03-03T01:36:29.609Z,99257.23
2023-03-03T01:41:33.762Z,99252.76
2023-03-03T01:46:40.464Z,99256.69
2023-03-03T01:51:58.531Z,99252.80
2023-03-03T01:57:07.146Z,99250.08
2023-03-03T02:02:10.790Z,99248.10
2023-03-03T02:07:16.472Z,99255.20
2023-03-03T02:12:22.847Z,99261.75
2023-03-03T02:17:26.469Z,99262.45
2023-03-03T02:22:51.164Z,99262.99
2023-03-03T02:27:54.715Z,99265.75
2023-03-03T02:32:57.865Z,99261.35
2023-03-03T02:38:27.950Z,99263.44
2023-03-03T02:43:46.362Z,99264.41
2023-03-03T02:48:49.729Z,99257.44
2023-03-03T02:53:53.315Z,99254.97
2023-03-03T02:58:57.126Z,99249.95
2023-03-03T03:04:00.416Z,99247.48
2023-03-03T03:09:06.494Z,99246.56
2023-03-03T03:14:10.838Z,99251.22
2023-03-03T03:19:15.221Z,99247.48
2023-03-03T03:24:19.454Z,99245.40
2023-03-03T03:29:28.789Z,99244.73
2023-03-03T03:34:32.346Z,99246.20
2023-03-03T03:39:36.802Z,99244.83
2023-03-03T03:44:40.320Z,99246.57
2023-03-03T03:49:43.523Z,99248.03
2023-03-03T03:54:46.791Z,99246.89
2023-03-03T03:59:50.578Z,99245.50
2023-03-03T04:04:54.451Z,99247.43
2023-03-03T04:09:57.744Z,99251.11
2023-03-03T04:15:01.046Z,99242.51
2023-03-03T04:20:07.123Z,99235.33
2023-03-03T04:25:14.621Z,99243.40
2023-03-03T04:30:19.027Z,99250.98
2023-03-03T04:35:24.168Z,99251.15
2023-03-03T04:40:28.220Z,99250.06
2023-03-03T04:45:31.682Z,99248.83
2023-03-03T04:50:35.575Z,99241.08
2023-03-03T04:55:39.907Z,99242.98
2023-03-03T05:00:43.393Z,99244.34
2023-03-03T05:05:48.045Z,99245.73
2023-03-03T05:10:55.461Z,99250.36
2023-03-03T05:15:58.862Z,99246.30
2023-03-03T05:21:02.368Z,99245.12
2023-03-03T05:26:05.839Z,99248.65
2023-03-03T05:31:09.186Z,99254.05
2023-03-03T05:36:12.365Z,99255.83
2023-03-03T05:41:15.496Z,99262.83
2023-03-03T05:46:19.574Z,99268.66
2023-03-03T05:51:22.960Z,99272.25
2023-03-03T05:56:26.388Z,99281.05
2023-03-03T06:01:29.904Z,99281.96
2023-03-03T06:06:33.134Z,99279.55
2023-03-03T06:11:37.781Z,99285.30
2023-03-03T06:16:41.021Z,99289.48
2023-03-03T06:21:44.333Z,99295.94
2023-03-03T06:26:48.552Z,99305.21
2023-03-03T06:31:52.495Z,99306.58
2023-03-03T06:36:57.142Z,99308.36
2023-03-03T06:42:00.340Z,99308.50
2023-03-03T06:47:04.012Z,99306.59
2023-03-03T06:52:23.170Z,99306.33
2023-03-03T06:57:34.704Z,99300.42
2023-03-03T07:02:37.984Z,99299.77
2023-03-03T07:07:41.318Z,99297.95
2023-03-03T07:12:44.658Z,99281.05
2023-03-03T07:17:58.490Z,99290.19
2023-03-03T07:23:14.667Z,99294.88
2023-03-03T07:28:25.795Z,99300.63
2023-03-03T07:33:38.347Z,99292.30
2023-03-03T07:38:48.707Z,99267.98
2023-03-03T07:44:05.589Z,99273.02
2023-03-03T07:49:32.273Z,99267.25
2023-03-03T07:54:38.522Z,99269.31
2023-03-03T07:59:49.486Z,99282.89
2023-03-03T08:04:53.193Z,99281.42
2023-03-03T08:10:00.759Z,99264.11
2023-03-03T08:15:23.724Z,99251.03
2023-03-03T08:20:43.759Z,99265.69
2023-03-03T08:25:48.602Z,99272.38
2023-03-03T08:31:02.588Z,99279.48
2023-03-03T08:36:13.268Z,99286.20
2023-03-03T08:41:16.912Z,99274.36
2023-03-03T08:46:20.363Z,99271.43
2023-03-03T08:51:23.763Z,99270.80
2023-03-03T08:56:27.668Z,99280.89
2023-03-03T09:01:32.916Z,99283.77
2023-03-03T09:06:36.512Z,99286.29
2023-03-03T09:11:40.224Z,99285.31
2023-03-03T09:16:52.506Z,99286.59
2023-03-03T09:22:02.338Z,99281.20
2023-03-03T09:27:33.399Z,99276.41
2023-03-03T09:32:40.107Z,99268.48
2023-03-03T09:37:44.741Z,99267.67
2023-03-03T09:43:04.332Z,99272.36
2023-03-03T09:48:30.743Z,99273.30
2023-03-03T09:53:36.680Z,99271.94
2023-03-03T09:59:01.613Z,99275.66
2023-03-03T10:04:43.054Z,99277.10
2023-03-03T10:09:55.385Z,99276.06
2023-03-03T10:15:50.103Z,99279.27
2023-03-03T10:21:22.260Z,99301.36
2023-03-03T10:26:45.716Z,99295.91
2023-03-03T10:32:01.413Z,99299.08
2023-03-03T10:37:16.869Z,99296.63
2023-03-03T10:42:43.490Z,99293.00
2023-03-03T10:48:18.718Z,99286.98
2023-03-03T10:53:33.254Z,99291.55
2023-03-03T10:58:42.684Z,99294.41
2023-03-03T11:04:21.745Z,99298.08
2023-03-03T11:09:38.006Z,99299.45
2023-03-03T11:15:00.479Z,99306.52
2023-03-03T11:20:29.174Z,99307.77
2023-03-03T11:25:35.489Z,99315.38
2023-03-03T11:31:08.455Z,99313.60
2023-03-03T11:36:20.902Z,99307.20
2023-03-03T11:41:32.482Z,99308.35
2023-03-03T11:46:46.761Z,99306.12
2023-03-03T11:52:09.322Z,99301.17
2023-03-03T11:57:12.842Z,99301.93
2023-03-03T12:02:28.714Z,99300.64
2023-03-03T12:07:47.910Z,99300.86
2023-03-03T12:13:17.045Z,99298.02
2023-03-03T12:19:03.247Z,99294.31
2023-03-03T12:24:25.276Z,99294.58
2023-03-03T12:29:31.262Z,99298.06
2023-03-03T12:34:42.060Z,99294.90
2023-03-03T12:39:51.350Z,99293.67
2023-03-03T12:45:01.138Z,99291.31
2023-03-03T12:50:10.501Z,99286.27
2023-03-03T12:55:35.083Z,99277.02
2023-03-03T13:01:16.516Z,99270.95
2023-03-03T13:06:42.542Z,99270.05
2023-03-03T13:12:16.146Z,99269.04
2023-03-03T13:17:27.152Z,99270.19
2023-03-03T13:22:50.617Z,99268.27
2023-03-03T13:28:11.986Z,99272.08
2023-03-03T13:33:18.998Z,99283.55
2023-03-03T13:38:42.861Z,99284.38
2023-03-03T13:44:09.836Z,99286.66
2023-03-03T13:49:28.160Z,99281.00
2023-03-03T13:54:49.417Z,99271.70
2023-03-03T14:00:07.804Z,99270.03
2023-03-03T14:05:28.810Z,99274.63
2023-03-03T14:10:38.322Z,99277.48
2023-03-03T14:15:47.530Z,99270.27
2023-03-03T14:20:57.226Z,99268.71
2023-03-03T14:26:11.788Z,99263.43
2023-03-03T14:31:24.484Z,99267.86
2023-03-03T14:36:35.924Z,99269.56
2023-03-03T14:41:42.278Z,99269.67
2023-03-03T14:46:45.931Z,99269.20
2023-03-03T14:51:50.620Z,99264.83
2023-03-03T14:57:12.370Z,99260.24
2023-03-03T15:02:19.260Z,99259.34
2023-03-03T15:07:26.599Z,99259.77
2023-03-03T15:12:32.880Z,99261.33
2023-03-03T15:17:44.706Z,99265.92
2023-03-03T15:22:53.519Z,99265.23
2023-03-03T15:28:18.118Z,99265.67
2023-03-03T15:33:39.536Z,99263.55
2023-03-03T15:38:49.336Z,99254.75
2023-03-03T15:44:13.257Z,99250.52
2023-03-03T15:49:48.421Z,99254.33
2023-03-03T15:54:54.381Z,99260.06
2023-03-03T15:59:57.558Z,99261.91
2023-03-03T16:05:16.824Z,99267.48
2023-03-03T16:10:54.904Z,99270.95
2023-03-03T16:16:25.604Z,99275.15
2023-03-03T16:21:55.349Z,99271.95
2023-03-03T16:27:15.960Z,99270.95
2023-03-03T16:32:50.958Z,99271.31
2023-03-03T16:38:10.278Z,99280.09
2023-03-03T16:43:51.444Z,99288.08
2023-03-03T16:49:26.941Z,99298.34
2023-03-03T16:54:59.830Z,99295.45
2023-03-03T17:00:18.793Z,99296.55
2023-03-03T17:05:48.045Z,99302.54
2023-03-03T17:10:53.672Z,99304.40
2023-03-03T17:16:18.534Z,99299.64
2023-03-03T17:21:27.930Z,99297.30
2023-03-03T17:26:44.360Z,99295.58
2023-03-03T17:32:12.686Z,99291.58
2023-03-03T17:37:42.948Z,99284.11
2023-03-03T17:42:58.103Z,99285.98
2023-03-03T17:48:13.709Z,99289.36
2023-03-03T17:53:35.590Z,99280.41
2023-03-03T17:58:57.452Z,99290.75
2023-03-03T18:04:12.947Z,99287.25
2023-03-03T18:09:22.136Z,99288.52
2023-03-03T18:14:31.601Z,99292.36
2023-03-03T18:20:06.283Z,99295.61
2023-03-03T18:25:13.096Z,99298.58
2023-03-03T18:30:24.903Z,99301.30
2023-03-03T18:35:34.162Z,99305.71
2023-03-03T18:40:51.036Z,99301.26
2023-03-03T18:45:56.046Z,99304.52
2023-03-03T18:50:59.810Z,99290.85
2023-03-03T18:56:11.177Z,99288.00
2023-03-03T19:01:44.195Z,99281.02
2023-03-03T19:06:56.475Z,99283.41
2023-03-03T19:11:59.932Z,99281.61
2023-03-03T19:17:18.538Z,99272.04
2023-03-03T19:22:29.972Z,99265.11
2023-03-03T19:27:37.330Z,99259.52
2023-03-03T19:33:00.292Z,99266.00
2023-03-03T19:38:20.601Z,99274.73
2023-03-03T19:43:35.496Z,99281.76
2023-03-03T19:48:44.871Z,99281.73
2023-03-03T19:53:53.957Z,99280.00
2023-03-03T19:59:20.807Z,99267.86
2023-03-03T20:04:52.475Z,99267.69
2023-03-03T20:10:01.452Z,99268.31
2023-03-03T20:15:24.284Z,99263.23
2023-03-03T20:20:49.238Z,99263.26
2023-03-03T20:25:56.780Z,99265.20
2023-03-03T20:31:09.945Z,99267.52
2023-03-03T20:36:20.187Z,99264.81
2023-03-03T20:41:35.223Z,99261.98
2023-03-03T20:47:01.748Z,99261.33
2023-03-03T20:52:31.692Z,99257.15
2023-03-03T20:57:48.022Z,99262.85
2023-03-03T21:03:00.533Z,99264.38
2023-03-03T21:08:05.663Z,99260.25
2023-03-03T21:13:37.417Z,99258.42
2023-03-03T21:18:40.776Z,99252.44
2023-03-03T21:23:44.045Z,99242.33
2023-03-03T21:29:03.448Z,99235.00
2023-03-03T21:34:22.470Z,99234.02
2023-03-03T21:39:26.043Z,99225.16
2023-03-03T21:44:50.632Z,99215.53
2023-03-03T21:49:54.008Z,99211.48
2023-03-03T21:54:57.345Z,99203.22
2023-03-03T22:00:00.749Z,99201.95
2023-03-03T22:05:07.541Z,99205.29
2023-03-03T22:10:11.477Z,99201.83
2023-03-03T22:15:14.874Z,99193.49
2023-03-03T22:20:18.134Z,99190.92
2023-03-03T22:25:21.278Z,99181.61
2023-03-03T22:30:24.563Z,99173.86
2023-03-03T22:35:27.717Z,99169.96
2023-03-03T22:40:32.154Z,99165.64
2023-03-03T22:45:35.431Z,99149.92
2023-03-03T22:50:40.472Z,99139.26
2023-03-03T22:55:43.776Z,99131.66
2023-03-03T23:00:48.610Z,99122.44
2023-03-03T23:05:52.198Z,99131.51
2023-03-03T23:10:55.702Z,99125.71
2023-03-03T23:16:00.466Z,99127.84
2023-03-03T23:21:04.232Z,99121.90
2023-03-03T23:26:08.110Z,99114.23
2023-03-03T23:31:11.571Z,99099.95
2023-03-03T23:36:18.069Z,99100.73
2023-03-03T23:41:21.440Z,99101.19
2023-03-03T23:46:24.769Z,99096.08
2023-03-03T23:51:27.933Z,99084.55
2023-03-03T23:56:31.333Z,99095.08
